Time;durP1;ratioP1;P1;durP2;ratioP2;P2;SDS_P1;SDS_P2;PMS_P1;PMS_P2;Temp;Humidity;BMP_temperature;BMP_pressure;BME280_temperature;BME280_humidity;BME280_pressure;Samples;Min_cycle;Max_cycle;Signal;HPM_P1;HPM_P2
2022/10/22 00:01:32;;;;;;;13.32;6.22;;;;;;;;;;6314459;22;20314;-94
2022/10/22 00:03:58;;;;;;;10.95;5.45;;;;;;;;;;6316096;22;20056;-90
2022/10/22 00:06:24;;;;;;;13.45;6.15;;;;;;;;;;6314884;22;20030;-90
2022/10/22 00:08:50;;;;;;;17.65;6.70;;;;;;;;;;6315741;22;20108;-93
2022/10/22 00:11:18;;;;;;;9.65;5.57;;;;;;;;;;6319104;22;20023;-96
2022/10/22 00:13:44;;;;;;;15.30;6.85;;;;;;;;;;6291615;22;20336;-90
2022/10/22 00:16:11;;;;;;;13.23;6.13;;;;;;;;;;6318634;22;20029;-89
2022/10/22 00:18:37;;;;;;;13.93;6.82;;;;;;;;;;6314743;22;20454;-90
2022/10/22 00:21:04;;;;;;;17.13;5.93;;;;;;;;;;6315312;22;20033;-90
2022/10/22 00:23:30;;;;;;;15.32;6.35;;;;;;;;;;6314667;22;20014;-90
2022/10/22 00:25:56;;;;;;;14.82;6.32;;;;;;;;;;6317424;22;20009;-89
2022/10/22 00:28:22;;;;;;;13.20;5.95;;;;;;;;;;6314685;22;20010;-90
2022/10/22 00:30:54;;;;;;;16.90;6.35;;;;;;;;;;6323582;22;19987;-94
2022/10/22 00:33:20;;;;;;;12.88;6.20;;;;;;;;;;6292872;22;20137;-90
2022/10/22 00:35:47;;;;;;;16.75;5.85;;;;;;;;;;6314038;22;20006;-89
2022/10/22 00:38:16;;;;;;;10.27;5.28;;;;;;;;;;6315774;22;20010;-94
2022/10/22 00:40:42;;;;;;;12.95;5.88;;;;;;;;;;6316221;22;20019;-90
2022/10/22 00:43:12;;;;;;;10.10;5.30;;;;;;;;;;6313876;22;20007;-89
2022/10/22 00:45:38;;;;;;;15.40;5.85;;;;;;;;;;6317132;22;20007;-95
2022/10/22 00:48:07;;;;;;;12.57;5.70;;;;;;;;;;6341921;22;20066;-89
2022/10/22 00:50:37;;;;;;;9.95;4.95;;;;;;;;;;6315831;22;20424;-89
2022/10/22 00:53:06;;;;;;;11.00;5.40;;;;;;;;;;6313975;22;20003;-88
2022/10/22 00:55:32;;;;;;;11.48;5.25;;;;;;;;;;6314600;22;20003;-96
2022/10/22 00:57:59;;;;;;;12.48;5.22;;;;;;;;;;6288443;22;20011;-90
2022/10/22 01:00:25;;;;;;;12.70;4.95;;;;;;;;;;6314802;22;20077;-89
2022/10/22 01:02:53;;;;;;;15.27;5.28;;;;;;;;;;6314439;22;20030;-90
2022/10/22 01:05:19;;;;;;;10.85;5.50;;;;;;;;;;6314571;22;20438;-90
2022/10/22 01:07:50;;;;;;;8.88;4.85;;;;;;;;;;6342124;22;20396;-90
2022/10/22 01:10:20;;;;;;;10.48;5.30;;;;;;;;;;6313953;22;20010;-90
2022/10/22 01:12:51;;;;;;;11.70;5.82;;;;;;;;;;6314022;22;20009;-90
2022/10/22 01:15:23;;;;;;;14.52;5.40;;;;;;;;;;6314181;22;20043;-89
2022/10/22 01:18:02;;;;;;;10.90;6.10;;;;;;;;;;6349224;22;20074;-88
2022/10/22 01:20:28;;;;;;;10.98;5.28;;;;;;;;;;6329798;22;20007;-89
2022/10/22 01:22:57;;;;;;;11.50;4.35;;;;;;;;;;6313803;22;20007;-90
2022/10/22 01:25:26;;;;;;;10.02;4.97;;;;;;;;;;6313861;22;20013;-90
2022/10/22 01:27:57;;;;;;;15.40;4.97;;;;;;;;;;6314839;22;20007;-95
2022/10/22 01:30:24;;;;;;;12.15;4.70;;;;;;;;;;6316343;22;20015;-90
2022/10/22 01:32:52;;;;;;;9.77;4.57;;;;;;;;;;6313534;22;20003;-89
2022/10/22 01:35:22;;;;;;;7.70;4.00;;;;;;;;;;6313593;22;20014;-90
2022/10/22 01:37:52;;;;;;;10.85;4.80;;;;;;;;;;6341447;22;20050;-96
2022/10/22 01:40:19;;;;;;;7.50;4.20;;;;;;;;;;6313333;22;20321;-90
2022/10/22 01:43:02;;;;;;;8.75;4.55;;;;;;;;;;6313295;22;20003;-90
2022/10/22 01:45:31;;;;;;;8.68;4.30;;;;;;;;;;6341683;22;20030;-89
2022/10/22 01:48:17;;;;;;;8.27;4.13;;;;;;;;;;6313330;22;20010;-89
2022/10/22 01:50:48;;;;;;;9.65;4.28;;;;;;;;;;6339294;22;20003;-90
2022/10/22 01:53:21;;;;;;;8.85;4.45;;;;;;;;;;6316063;22;20006;-94
2022/10/22 01:55:56;;;;;;;8.80;4.38;;;;;;;;;;6318709;22;20009;-90
2022/10/22 01:58:22;;;;;;;9.27;4.50;;;;;;;;;;6313777;22;20075;-89
2022/10/22 02:01:08;;;;;;;8.70;4.88;;;;;;;;;;6313902;22;20029;-90
2022/10/22 02:03:38;;;;;;;7.85;3.88;;;;;;;;;;6313434;22;20038;-89
2022/10/22 02:06:09;;;;;;;8.00;3.92;;;;;;;;;;6324861;22;19990;-89
2022/10/22 02:08:36;;;;;;;11.43;4.60;;;;;;;;;;6321616;22;20097;-90
2022/10/22 02:11:02;;;;;;;7.43;3.53;;;;;;;;;;6340777;22;20006;-90
2022/10/22 02:13:37;;;;;;;6.45;3.83;;;;;;;;;;6313206;22;20010;-89
2022/10/22 02:16:05;;;;;;;6.90;3.20;;;;;;;;;;6313181;22;20057;-89
2022/10/22 02:18:33;;;;;;;7.47;3.97;;;;;;;;;;6316496;22;20003;-95
2022/10/22 02:21:00;;;;;;;7.82;4.10;;;;;;;;;;6315800;22;20031;-94
2022/10/22 02:23:28;;;;;;;8.20;3.78;;;;;;;;;;6362107;22;20011;-93
2022/10/22 02:25:58;;;;;;;7.10;3.80;;;;;;;;;;6319028;22;20320;-90
2022/10/22 02:28:39;;;;;;;6.57;3.60;;;;;;;;;;6313338;22;20056;-90
2022/10/22 02:31:10;;;;;;;8.93;4.07;;;;;;;;;;6313266;22;20040;-90
2022/10/22 02:33:41;;;;;;;8.85;3.80;;;;;;;;;;6341327;22;20025;-91
2022/10/22 02:36:07;;;;;;;9.07;3.67;;;;;;;;;;6315898;22;20003;-93
2022/10/22 02:38:34;;;;;;;8.07;3.95;;;;;;;;;;6313641;22;20002;-90
2022/10/22 02:41:00;;;;;;;9.70;4.13;;;;;;;;;;6314274;22;20027;-96
2022/10/22 02:43:28;;;;;;;7.93;3.83;;;;;;;;;;6313755;22;20443;-89
2022/10/22 02:45:55;;;;;;;6.97;4.30;;;;;;;;;;6314676;22;20003;-96
2022/10/22 02:48:21;;;;;;;6.82;3.60;;;;;;;;;;6314027;22;20102;-90
2022/10/22 02:50:47;;;;;;;9.23;3.55;;;;;;;;;;6313332;22;20427;-89
2022/10/22 02:53:13;;;;;;;10.32;3.83;;;;;;;;;;6312868;22;20056;-95
2022/10/22 02:55:39;;;;;;;8.32;3.90;;;;;;;;;;6315298;22;20486;-90
2022/10/22 02:58:05;;;;;;;9.88;4.03;;;;;;;;;;6314256;22;19999;-94
2022/10/22 03:00:31;;;;;;;7.90;3.67;;;;;;;;;;6317752;22;20002;-95
2022/10/22 03:02:57;;;;;;;9.50;4.07;;;;;;;;;;6315140;22;20031;-89
2022/10/22 03:05:23;;;;;;;11.60;4.25;;;;;;;;;;6329418;22;20007;-89
2022/10/22 03:07:49;;;;;;;8.48;3.60;;;;;;;;;;6319065;22;20003;-94
2022/10/22 03:10:16;;;;;;;8.43;3.72;;;;;;;;;;6313474;22;20332;-89
2022/10/22 03:12:42;;;;;;;8.60;4.28;;;;;;;;;;6340012;22;19995;-90
2022/10/22 03:15:08;;;;;;;11.25;5.50;;;;;;;;;;6313243;22;20006;-89
2022/10/22 03:17:34;;;;;;;13.05;4.75;;;;;;;;;;6314690;22;20054;-96
2022/10/22 03:20:00;;;;;;;9.20;4.18;;;;;;;;;;6316774;22;20086;-94
2022/10/22 03:22:29;;;;;;;10.68;4.72;;;;;;;;;;6316421;22;20007;-96
2022/10/22 03:24:57;;;;;;;21.73;5.65;;;;;;;;;;6315146;22;20003;-89
2022/10/22 03:27:23;;;;;;;9.40;3.78;;;;;;;;;;6312943;22;20071;-90
2022/10/22 03:29:52;;;;;;;8.52;4.15;;;;;;;;;;6314876;22;20068;-90
2022/10/22 03:32:18;;;;;;;8.10;3.63;;;;;;;;;;6315407;22;20002;-89
2022/10/22 03:34:45;;;;;;;8.27;3.75;;;;;;;;;;6315769;22;20006;-96
2022/10/22 03:37:11;;;;;;;12.52;3.75;;;;;;;;;;6318373;22;19999;-95
2022/10/22 03:39:37;;;;;;;6.72;3.17;;;;;;;;;;6318935;22;20309;-94
2022/10/22 03:42:04;;;;;;;7.32;3.60;;;;;;;;;;6304291;22;20013;-89
2022/10/22 03:44:30;;;;;;;7.70;3.10;;;;;;;;;;6321880;22;20003;-95
2022/10/22 03:46:56;;;;;;;7.75;3.55;;;;;;;;;;6316629;22;20062;-94
2022/10/22 03:49:22;;;;;;;8.23;3.88;;;;;;;;;;6314283;22;20039;-89
2022/10/22 03:51:48;;;;;;;8.88;4.03;;;;;;;;;;6315374;22;20014;-90
2022/10/22 03:54:15;;;;;;;6.40;3.13;;;;;;;;;;6314748;22;20003;-90
2022/10/22 03:56:42;;;;;;;6.95;3.22;;;;;;;;;;6314775;22;19999;-90
2022/10/22 03:59:09;;;;;;;8.18;3.88;;;;;;;;;;6315530;22;20136;-88
2022/10/22 04:01:35;;;;;;;9.63;3.70;;;;;;;;;;6315339;22;20010;-89
2022/10/22 04:04:01;;;;;;;14.95;5.90;;;;;;;;;;6315170;22;20023;-89
2022/10/22 04:06:28;;;;;;;14.23;5.05;;;;;;;;;;6314456;22;20476;-90
2022/10/22 04:08:55;;;;;;;10.10;4.95;;;;;;;;;;6314749;22;20011;-95
2022/10/22 04:11:21;;;;;;;11.77;4.00;;;;;;;;;;6291395;22;20007;-90
2022/10/22 04:13:47;;;;;;;7.32;3.53;;;;;;;;;;6314590;22;20435;-89
2022/10/22 04:16:14;;;;;;;8.75;3.92;;;;;;;;;;6317322;22;20022;-89
2022/10/22 04:18:41;;;;;;;9.20;4.90;;;;;;;;;;6314605;22;19999;-89
2022/10/22 04:21:08;;;;;;;10.05;4.68;;;;;;;;;;6317559;22;20038;-89
2022/10/22 04:23:35;;;;;;;8.73;4.32;;;;;;;;;;6317703;22;20496;-95
2022/10/22 04:26:02;;;;;;;11.02;3.80;;;;;;;;;;6318214;22;20157;-89
2022/10/22 04:28:28;;;;;;;8.75;4.78;;;;;;;;;;6314260;22;20014;-90
2022/10/22 04:30:54;;;;;;;9.82;4.22;;;;;;;;;;6314618;22;20086;-90
2022/10/22 04:33:21;;;;;;;8.00;3.78;;;;;;;;;;6315990;22;20003;-96
2022/10/22 04:35:47;;;;;;;11.20;4.13;;;;;;;;;;6318415;22;20015;-95
2022/10/22 04:38:13;;;;;;;6.38;3.75;;;;;;;;;;6317164;22;20021;-89
2022/10/22 04:40:40;;;;;;;6.68;3.97;;;;;;;;;;6316055;22;20038;-95
2022/10/22 04:43:06;;;;;;;8.30;3.80;;;;;;;;;;6318792;22;20003;-95
2022/10/22 04:45:33;;;;;;;6.97;3.20;;;;;;;;;;6316002;22;20002;-90
2022/10/22 04:47:59;;;;;;;7.80;3.75;;;;;;;;;;6314710;22;20026;-89
2022/10/22 04:50:25;;;;;;;7.20;3.50;;;;;;;;;;6322297;22;20022;-88
2022/10/22 04:52:52;;;;;;;7.85;3.92;;;;;;;;;;6322745;22;20006;-91
2022/10/22 04:55:18;;;;;;;7.32;3.60;;;;;;;;;;6314680;22;20016;-89
2022/10/22 04:57:44;;;;;;;5.78;3.05;;;;;;;;;;6314975;22;19999;-95
2022/10/22 05:00:15;;;;;;;7.70;3.97;;;;;;;;;;6314487;22;20336;-95
2022/10/22 05:02:43;;;;;;;6.10;3.15;;;;;;;;;;6315367;22;20475;-91
2022/10/22 05:05:10;;;;;;;8.75;4.47;;;;;;;;;;6314257;22;20010;-90
2022/10/22 05:07:36;;;;;;;9.23;3.95;;;;;;;;;;6316854;22;20324;-89
2022/10/22 05:10:02;;;;;;;14.13;4.00;;;;;;;;;;6322892;22;20019;-88
2022/10/22 05:12:29;;;;;;;6.18;3.40;;;;;;;;;;6314376;22;20038;-91
2022/10/22 05:14:55;;;;;;;6.35;3.05;;;;;;;;;;6315403;22;20450;-89
2022/10/22 05:17:21;;;;;;;9.63;3.88;;;;;;;;;;6316013;22;20316;-85
2022/10/22 05:19:48;;;;;;;10.10;4.00;;;;;;;;;;6314412;22;20076;-87
2022/10/22 05:22:14;;;;;;;9.90;4.20;;;;;;;;;;6313970;22;20014;-89
2022/10/22 05:24:40;;;;;;;6.95;3.90;;;;;;;;;;6315049;22;20007;-88
2022/10/22 05:27:06;;;;;;;10.18;3.60;;;;;;;;;;6314717;22;19999;-87
2022/10/22 05:29:32;;;;;;;7.88;4.25;;;;;;;;;;6313902;22;20011;-87
2022/10/22 05:31:58;;;;;;;7.90;4.03;;;;;;;;;;6314453;22;20009;-93
2022/10/22 05:34:24;;;;;;;11.30;4.75;;;;;;;;;;6314192;22;20006;-88
2022/10/22 05:36:52;;;;;;;8.57;4.07;;;;;;;;;;6314346;22;20428;-94
2022/10/22 05:39:18;;;;;;;8.23;4.35;;;;;;;;;;6288836;22;20006;-89
2022/10/22 05:41:44;;;;;;;7.55;4.05;;;;;;;;;;6314478;22;20014;-93
2022/10/22 05:44:12;;;;;;;12.30;4.07;;;;;;;;;;6315241;22;20086;-89
2022/10/22 05:46:42;;;;;;;7.05;4.03;;;;;;;;;;6314814;22;20081;-92
2022/10/22 05:49:11;;;;;;;13.93;5.35;;;;;;;;;;6309156;22;20015;-88
2022/10/22 05:51:37;;;;;;;8.15;4.32;;;;;;;;;;6312830;22;20449;-87
2022/10/22 05:54:04;;;;;;;5.95;3.63;;;;;;;;;;6313160;22;20005;-92
2022/10/22 05:56:31;;;;;;;10.98;4.05;;;;;;;;;;6340891;22;20053;-94
2022/10/22 05:58:59;;;;;;;9.45;4.38;;;;;;;;;;6313354;22;19999;-87
2022/10/22 06:01:26;;;;;;;11.55;5.03;;;;;;;;;;6313174;22;20007;-88
2022/10/22 06:03:53;;;;;;;9.10;4.13;;;;;;;;;;6308975;22;20008;-85
2022/10/22 06:06:21;;;;;;;11.57;5.22;;;;;;;;;;6308545;22;20033;-91
2022/10/22 06:08:49;;;;;;;10.95;5.15;;;;;;;;;;6308370;22;20018;-90
2022/10/22 06:11:16;;;;;;;10.90;4.72;;;;;;;;;;6309103;22;20480;-90
2022/10/22 06:13:43;;;;;;;11.57;5.25;;;;;;;;;;6307701;22;20003;-87
2022/10/22 06:16:09;;;;;;;11.43;5.55;;;;;;;;;;6309496;22;20485;-92
2022/10/22 06:18:35;;;;;;;13.07;5.47;;;;;;;;;;6307649;22;20014;-91
2022/10/22 06:21:08;;;;;;;14.93;5.95;;;;;;;;;;6308533;22;20435;-87
2022/10/22 06:23:34;;;;;;;10.15;5.57;;;;;;;;;;6307881;22;20007;-93
2022/10/22 06:26:00;;;;;;;12.57;5.95;;;;;;;;;;6308560;22;20075;-89
2022/10/22 06:28:27;;;;;;;11.00;6.28;;;;;;;;;;6308488;22;20018;-89
2022/10/22 06:30:53;;;;;;;14.82;7.82;;;;;;;;;;6308022;22;20010;-92
2022/10/22 06:33:19;;;;;;;13.35;7.30;;;;;;;;;;6308554;22;20435;-88
2022/10/22 06:35:47;;;;;;;16.38;6.85;;;;;;;;;;6308994;22;20071;-92
2022/10/22 06:38:13;;;;;;;13.55;6.60;;;;;;;;;;6327697;22;20051;-90
2022/10/22 06:40:42;;;;;;;10.73;6.03;;;;;;;;;;6308521;22;20320;-91
2022/10/22 06:43:08;;;;;;;21.25;10.35;;;;;;;;;;6308887;22;20003;-93
2022/10/22 06:45:35;;;;;;;17.10;7.05;;;;;;;;;;6307910;22;20014;-90
2022/10/22 06:48:01;;;;;;;13.68;6.18;;;;;;;;;;6307904;22;20078;-90
2022/10/22 06:50:27;;;;;;;11.48;6.28;;;;;;;;;;6309248;22;20072;-90
2022/10/22 06:52:55;;;;;;;11.32;6.30;;;;;;;;;;6317749;22;20022;-91
2022/10/22 06:55:21;;;;;;;10.05;5.70;;;;;;;;;;6315587;22;20078;-87
2022/10/22 06:57:47;;;;;;;10.13;5.53;;;;;;;;;;6307433;22;20064;-90
2022/10/22 07:00:14;;;;;;;13.85;6.15;;;;;;;;;;6307446;22;20444;-89
2022/10/22 07:02:40;;;;;;;14.00;6.50;;;;;;;;;;6308231;22;20058;-89
2022/10/22 07:05:06;;;;;;;9.65;6.30;;;;;;;;;;6312623;22;20011;-92
2022/10/22 07:07:32;;;;;;;12.82;6.10;;;;;;;;;;6312940;22;20021;-91
2022/10/22 07:09:58;;;;;;;10.68;6.00;;;;;;;;;;6312651;22;20015;-90
2022/10/22 07:12:25;;;;;;;10.52;5.85;;;;;;;;;;6312635;22;20033;-90
2022/10/22 07:14:51;;;;;;;9.48;6.20;;;;;;;;;;6312947;22;20003;-90
2022/10/22 07:17:17;;;;;;;10.15;5.03;;;;;;;;;;6340193;22;20010;-90
2022/10/22 07:19:44;;;;;;;14.02;7.75;;;;;;;;;;6312561;22;20007;-89
2022/10/22 07:25:46;;;;;;;23.15;10.55;;;;;;;;;;6323453;22;20015;-95
2022/10/22 07:33:54;;;;;;;10.98;4.72;;;;;;;;;;6331166;22;20023;-90
2022/10/22 07:36:26;;;;;;;10.77;5.60;;;;;;;;;;6287474;22;20080;-89
2022/10/22 07:38:56;;;;;;;6.82;3.25;;;;;;;;;;6311545;22;20018;-90
2022/10/22 07:41:22;;;;;;;7.40;3.95;;;;;;;;;;6312557;22;20013;-89
2022/10/22 07:43:49;;;;;;;13.10;3.85;;;;;;;;;;6313668;22;20013;-89
2022/10/22 07:46:15;;;;;;;9.13;4.07;;;;;;;;;;6313586;22;20003;-89
2022/10/22 07:48:41;;;;;;;6.97;3.85;;;;;;;;;;6313010;22;19999;-88
2022/10/22 07:51:07;;;;;;;11.18;3.35;;;;;;;;;;6313363;22;20003;-88
2022/10/22 07:53:33;;;;;;;11.15;4.47;;;;;;;;;;6315552;22;20002;-88
2022/10/22 07:55:59;;;;;;;6.38;3.55;;;;;;;;;;6313029;22;20025;-88
2022/10/22 07:58:26;;;;;;;10.95;3.92;;;;;;;;;;6312569;22;20010;-89
2022/10/22 08:00:55;;;;;;;9.32;4.60;;;;;;;;;;6312452;22;20007;-91
2022/10/22 08:03:21;;;;;;;12.10;5.90;;;;;;;;;;6312650;22;20003;-86
2022/10/22 08:05:47;;;;;;;9.75;4.78;;;;;;;;;;6340496;22;20026;-89
2022/10/22 08:08:14;;;;;;;10.25;4.40;;;;;;;;;;6312678;22;19998;-86
2022/10/22 08:10:40;;;;;;;9.48;5.35;;;;;;;;;;6312609;22;20007;-88
2022/10/22 08:13:09;;;;;;;10.07;4.90;;;;;;;;;;6312481;22;20002;-88
2022/10/22 08:15:35;;;;;;;9.73;4.90;;;;;;;;;;6314309;22;20003;-88
2022/10/22 08:18:01;;;;;;;7.75;4.90;;;;;;;;;;6315248;22;20063;-89
2022/10/22 08:20:27;;;;;;;12.02;6.28;;;;;;;;;;6315528;22;20017;-91
2022/10/22 08:22:53;;;;;;;11.55;6.15;;;;;;;;;;6319718;22;20062;-89
2022/10/22 08:25:19;;;;;;;12.98;6.38;;;;;;;;;;6332599;22;20009;-91
2022/10/22 08:27:46;;;;;;;10.63;5.53;;;;;;;;;;6316459;22;20416;-89
2022/10/22 08:30:12;;;;;;;9.98;5.25;;;;;;;;;;6317415;22;20101;-87
2022/10/22 08:32:38;;;;;;;9.82;5.05;;;;;;;;;;6318126;22;19999;-88
2022/10/22 08:35:04;;;;;;;10.70;5.53;;;;;;;;;;6314163;22;20007;-88
2022/10/22 08:37:30;;;;;;;10.18;5.75;;;;;;;;;;6314140;22;20018;-91
2022/10/22 08:39:56;;;;;;;9.55;4.88;;;;;;;;;;6314076;22;20015;-88
2022/10/22 08:42:41;;;;;;;17.88;8.25;;;;;;;;;;6314240;22;20048;-91
2022/10/22 08:45:10;;;;;;;9.63;4.93;;;;;;;;;;6314607;22;20060;-89
2022/10/22 08:47:46;;;;;;;16.23;9.07;;;;;;;;;;6314935;22;20052;-93
2022/10/22 08:50:15;;;;;;;12.90;5.05;;;;;;;;;;6314342;22;20027;-88
2022/10/22 08:52:44;;;;;;;10.57;5.07;;;;;;;;;;6313641;22;20003;-88
2022/10/22 08:55:15;;;;;;;9.77;5.00;;;;;;;;;;6314533;22;20010;-92
2022/10/22 08:57:47;;;;;;;10.40;5.20;;;;;;;;;;6314621;22;20436;-90
2022/10/22 09:00:17;;;;;;;10.20;4.97;;;;;;;;;;6314349;22;20018;-90
2022/10/22 09:02:49;;;;;;;9.02;4.65;;;;;;;;;;6314367;22;20003;-91
2022/10/22 09:05:23;;;;;;;7.72;4.80;;;;;;;;;;6315091;22;20002;-92
2022/10/22 09:07:50;;;;;;;9.80;4.97;;;;;;;;;;6314635;22;19999;-90
2022/10/22 09:10:17;;;;;;;12.50;5.40;;;;;;;;;;6313668;22;20328;-90
2022/10/22 09:12:43;;;;;;;8.30;5.10;;;;;;;;;;6314197;22;20313;-90
2022/10/22 09:15:13;;;;;;;10.68;5.55;;;;;;;;;;6314849;22;20003;-90
2022/10/22 09:17:49;;;;;;;13.00;4.88;;;;;;;;;;6315013;22;20003;-91
2022/10/22 09:20:15;;;;;;;10.80;5.22;;;;;;;;;;6314830;22;20015;-91
2022/10/22 09:22:41;;;;;;;10.55;5.25;;;;;;;;;;6315120;22;20056;-93
2022/10/22 09:25:27;;;;;;;10.73;5.20;;;;;;;;;;6313933;22;20014;-92
2022/10/22 09:27:57;;;;;;;8.70;5.68;;;;;;;;;;6314772;22;20332;-90
2022/10/22 09:30:24;;;;;;;16.40;5.70;;;;;;;;;;6313509;22;20003;-93
2022/10/22 09:33:10;;;;;;;13.32;5.63;;;;;;;;;;6313762;22;19998;-90
2022/10/22 09:35:52;;;;;;;10.45;5.43;;;;;;;;;;6313854;22;20006;-89
2022/10/22 09:38:20;;;;;;;10.52;5.97;;;;;;;;;;6342363;22;20393;-92
2022/10/22 09:40:50;;;;;;;11.65;5.78;;;;;;;;;;6314331;22;20010;-91
2022/10/22 09:43:17;;;;;;;12.00;5.45;;;;;;;;;;6314334;22;19999;-89
2022/10/22 09:45:44;;;;;;;10.85;5.63;;;;;;;;;;6313734;22;20042;-87
2022/10/22 09:48:16;;;;;;;10.95;5.35;;;;;;;;;;6313565;22;20022;-88
2022/10/22 09:50:43;;;;;;;8.73;5.20;;;;;;;;;;6314863;22;20003;-91
2022/10/22 09:53:20;;;;;;;9.60;5.47;;;;;;;;;;6315777;22;20005;-88
2022/10/22 09:55:51;;;;;;;10.48;5.68;;;;;;;;;;6314044;22;20007;-91
2022/10/22 09:58:17;;;;;;;11.85;5.95;;;;;;;;;;6314686;22;20049;-89
2022/10/22 10:00:45;;;;;;;10.80;5.50;;;;;;;;;;6313937;22;20098;-88
2022/10/22 10:03:18;;;;;;;14.30;6.35;;;;;;;;;;6314545;22;19999;-91
2022/10/22 10:05:44;;;;;;;;;;;;;;;;;;6315757;22;20007;-91
2022/10/22 10:08:15;;;;;;;9.88;5.88;;;;;;;;;;6320825;22;19905;-91
2022/10/22 10:10:41;;;;;;;11.32;6.18;;;;;;;;;;6327291;22;20003;-87
2022/10/22 10:13:30;;;;;;;20.45;6.85;;;;;;;;;;6349133;22;20006;-88
2022/10/22 10:16:15;;;;;;;9.52;6.13;;;;;;;;;;6313381;22;20439;-89
2022/10/22 10:18:55;;;;;;;11.25;5.93;;;;;;;;;;6315049;22;20412;-89
2022/10/22 10:21:31;;;;;;;11.32;6.15;;;;;;;;;;6314118;22;20328;-89
2022/10/22 10:24:10;;;;;;;11.98;5.97;;;;;;;;;;6341634;22;20035;-93
2022/10/22 10:26:51;;;;;;;10.32;6.40;;;;;;;;;;6313587;22;20060;-87
2022/10/22 10:29:20;;;;;;;10.52;6.45;;;;;;;;;;6313483;22;20010;-90
2022/10/22 10:31:59;;;;;;;13.18;7.18;;;;;;;;;;6314316;22;20010;-86
2022/10/22 10:34:51;;;;;;;19.45;7.90;;;;;;;;;;6314152;22;20059;-86
2022/10/22 10:37:24;;;;;;;14.85;7.68;;;;;;;;;;6255641;22;20019;-89
2022/10/22 10:39:58;;;;;;;14.40;7.75;;;;;;;;;;6313997;22;20011;-90
2022/10/22 10:42:57;;;;;;;13.05;7.60;;;;;;;;;;6313867;22;20002;-87
2022/10/22 10:45:30;;;;;;;12.95;8.05;;;;;;;;;;6231907;22;20007;-90
2022/10/22 10:48:02;;;;;;;17.02;8.07;;;;;;;;;;6314075;22;20049;-88
2022/10/22 10:50:49;;;;;;;15.85;7.93;;;;;;;;;;6313594;22;20002;-85
2022/10/22 10:53:22;;;;;;;16.77;9.02;;;;;;;;;;6313870;22;20007;-88
2022/10/22 10:55:59;;;;;;;14.27;8.75;;;;;;;;;;6314391;22;20002;-88
2022/10/22 10:58:30;;;;;;;15.90;9.43;;;;;;;;;;6313952;22;20354;-93
2022/10/22 11:00:57;;;;;;;14.07;8.40;;;;;;;;;;6313842;22;20033;-90
2022/10/22 11:03:23;;;;;;;18.40;8.90;;;;;;;;;;6313936;22;20003;-89
2022/10/22 11:05:55;;;;;;;15.77;9.23;;;;;;;;;;6315349;22;20003;-91
2022/10/22 11:08:26;;;;;;;15.07;9.07;;;;;;;;;;6313066;22;20023;-86
2022/10/22 11:10:59;;;;;;;15.05;9.65;;;;;;;;;;6312504;22;20003;-89
2022/10/22 11:13:25;;;;;;;15.45;8.40;;;;;;;;;;6312701;22;20071;-88
2022/10/22 11:16:05;;;;;;;13.68;8.48;;;;;;;;;;6311748;22;20010;-89
2022/10/22 11:18:40;;;;;;;14.18;8.77;;;;;;;;;;6312497;22;20497;-90
2022/10/22 11:21:06;;;;;;;17.67;9.07;;;;;;;;;;6311811;22;20006;-92
2022/10/22 11:23:35;;;;;;;15.88;10.02;;;;;;;;;;6312567;22;19999;-89
2022/10/22 11:26:01;;;;;;;16.20;8.68;;;;;;;;;;6312704;22;20453;-87
2022/10/22 11:28:31;;;;;;;17.58;10.90;;;;;;;;;;6312331;22;20003;-85
2022/10/22 11:31:17;;;;;;;19.30;9.65;;;;;;;;;;6312886;22;20014;-89
2022/10/22 11:33:43;;;;;;;17.10;10.52;;;;;;;;;;6312055;22;20074;-87
2022/10/22 11:36:10;;;;;;;18.98;9.93;;;;;;;;;;6339742;22;20003;-89
2022/10/22 11:38:37;;;;;;;19.65;10.30;;;;;;;;;;6312327;22;20051;-87
2022/10/22 11:41:13;;;;;;;18.20;11.48;;;;;;;;;;6312230;22;20007;-87
2022/10/22 11:44:13;;;;;;;16.67;10.23;;;;;;;;;;6312942;22;20010;-88
2022/10/22 11:46:44;;;;;;;19.52;10.80;;;;;;;;;;6231036;22;20014;-90
2022/10/22 11:49:13;;;;;;;16.85;10.02;;;;;;;;;;6340689;22;20006;-88
2022/10/22 11:51:40;;;;;;;19.95;11.13;;;;;;;;;;6314944;22;20037;-89
2022/10/22 11:54:25;;;;;;;26.42;12.07;;;;;;;;;;6314214;22;20030;-90
2022/10/22 11:57:12;;;;;;;19.42;10.82;;;;;;;;;;6326344;22;20014;-90
2022/10/22 11:59:39;;;;;;;18.40;11.38;;;;;;;;;;6316093;22;20014;-88
2022/10/22 12:02:22;;;;;;;17.65;11.00;;;;;;;;;;6315175;22;20023;-87
2022/10/22 12:04:48;;;;;;;20.58;12.43;;;;;;;;;;6313179;22;20006;-87
2022/10/22 12:07:33;;;;;;;29.60;13.13;;;;;;;;;;6314443;22;20085;-91
2022/10/22 12:09:59;;;;;;;19.63;11.60;;;;;;;;;;6314009;22;20063;-88
2022/10/22 12:12:28;;;;;;;20.88;11.32;;;;;;;;;;6341702;22;20023;-88
2022/10/22 12:14:58;;;;;;;21.77;11.93;;;;;;;;;;6314296;22;20065;-89
2022/10/22 12:17:25;;;;;;;178.35;50.30;;;;;;;;;;6314141;22;20056;-89
2022/10/22 12:20:11;;;;;;;48.03;22.17;;;;;;;;;;6314096;22;20018;-88
2022/10/22 12:22:38;;;;;;;22.42;12.50;;;;;;;;;;6313869;22;20003;-87
2022/10/22 12:25:23;;;;;;;23.30;12.00;;;;;;;;;;6314083;22;20010;-90
2022/10/22 12:27:50;;;;;;;21.90;10.35;;;;;;;;;;6314252;22;20003;-90
2022/10/22 12:30:43;;;;;;;24.25;12.73;;;;;;;;;;6314020;22;20007;-88
2022/10/22 12:33:18;;;;;;;34.80;19.67;;;;;;;;;;6307482;22;20010;-87
2022/10/22 12:35:45;;;;;;;38.95;18.63;;;;;;;;;;6314188;22;20007;-88
2022/10/22 12:38:16;;;;;;;25.52;14.07;;;;;;;;;;6308445;22;20019;-88
2022/10/22 12:40:43;;;;;;;24.95;13.68;;;;;;;;;;6310225;22;20433;-88
2022/10/22 12:43:26;;;;;;;26.15;12.20;;;;;;;;;;6314198;22;20003;-88
2022/10/22 12:45:52;;;;;;;26.17;13.73;;;;;;;;;;6314466;22;20003;-89
2022/10/22 12:48:20;;;;;;;20.67;11.40;;;;;;;;;;6313993;22;20006;-89
2022/10/22 12:50:51;;;;;;;17.60;11.73;;;;;;;;;;6314133;22;20026;-89
2022/10/22 12:53:17;;;;;;;20.60;11.38;;;;;;;;;;6314384;22;20424;-88
2022/10/22 12:55:46;;;;;;;18.15;9.60;;;;;;;;;;6316326;22;19998;-88
2022/10/22 12:58:16;;;;;;;16.80;10.68;;;;;;;;;;6314309;22;20014;-88
2022/10/22 13:00:42;;;;;;;18.88;9.80;;;;;;;;;;6314774;22;20321;-88
2022/10/22 13:03:25;;;;;;;18.73;10.10;;;;;;;;;;6314256;22;20006;-89
2022/10/22 13:05:51;;;;;;;18.35;10.90;;;;;;;;;;6314054;22;20331;-90
2022/10/22 13:08:20;;;;;;;18.63;10.20;;;;;;;;;;6314078;22;20009;-89
2022/10/22 13:10:50;;;;;;;19.33;9.90;;;;;;;;;;6314256;22;20007;-87
2022/10/22 13:13:30;;;;;;;17.73;10.02;;;;;;;;;;6341587;22;20002;-89
2022/10/22 13:15:56;;;;;;;19.52;10.70;;;;;;;;;;6315336;22;20086;-87
2022/10/22 13:18:24;;;;;;;18.42;11.48;;;;;;;;;;6342343;22;20010;-90
2022/10/22 13:21:00;;;;;;;17.20;11.02;;;;;;;;;;6317494;22;20085;-89
2022/10/22 13:23:27;;;;;;;18.08;11.07;;;;;;;;;;6315180;22;20003;-88
2022/10/22 13:25:58;;;;;;;21.00;9.57;;;;;;;;;;6313844;22;20006;-88
2022/10/22 13:28:25;;;;;;;16.52;10.18;;;;;;;;;;6312991;22;20026;-85
2022/10/22 13:30:52;;;;;;;20.65;11.60;;;;;;;;;;6313456;22;20385;-87
2022/10/22 13:33:39;;;;;;;19.30;10.45;;;;;;;;;;6313558;22;20021;-86
2022/10/22 13:36:06;;;;;;;18.95;10.27;;;;;;;;;;6313536;22;20091;-88
2022/10/22 13:38:32;;;;;;;17.10;10.18;;;;;;;;;;6313493;22;20021;-88
2022/10/22 13:40:58;;;;;;;19.45;10.85;;;;;;;;;;6313899;22;20089;-92
2022/10/22 13:43:25;;;;;;;19.27;11.23;;;;;;;;;;6332486;22;20007;-87
2022/10/22 13:45:57;;;;;;;23.08;11.30;;;;;;;;;;6313342;22;20077;-93
2022/10/22 13:48:23;;;;;;;21.40;11.10;;;;;;;;;;6313048;22;20033;-88
2022/10/22 13:50:50;;;;;;;22.38;11.65;;;;;;;;;;6313065;22;20010;-87
2022/10/22 13:53:18;;;;;;;18.58;10.50;;;;;;;;;;6313386;22;20085;-87
2022/10/22 13:55:45;;;;;;;15.85;10.00;;;;;;;;;;6312833;22;20352;-88
2022/10/22 13:58:12;;;;;;;15.90;9.48;;;;;;;;;;6313574;22;20033;-88
2022/10/22 14:00:40;;;;;;;17.13;10.98;;;;;;;;;;6313627;22;20463;-87
2022/10/22 14:03:09;;;;;;;16.65;10.07;;;;;;;;;;6313086;22;20009;-87
2022/10/22 14:05:35;;;;;;;16.65;10.32;;;;;;;;;;6314449;22;20190;-88
2022/10/22 14:08:01;;;;;;;17.10;9.65;;;;;;;;;;6313487;22;19999;-88
2022/10/22 14:10:28;;;;;;;41.60;22.40;;;;;;;;;;6343657;22;20005;-88
2022/10/22 14:12:54;;;;;;;43.45;22.35;;;;;;;;;;6314997;22;20064;-90
2022/10/22 14:15:22;;;;;;;37.88;19.20;;;;;;;;;;6312861;22;20424;-88
2022/10/22 14:17:50;;;;;;;27.60;17.38;;;;;;;;;;6313657;22;20013;-88
2022/10/22 14:20:19;;;;;;;23.15;14.38;;;;;;;;;;6313377;22;20093;-90
2022/10/22 14:22:50;;;;;;;22.60;15.50;;;;;;;;;;6313062;22;20006;-89
2022/10/22 14:25:17;;;;;;;18.45;12.30;;;;;;;;;;6313222;22;20014;-86
2022/10/22 14:27:43;;;;;;;35.85;23.20;;;;;;;;;;6312838;22;20007;-86
2022/10/22 14:30:13;;;;;;;34.50;19.73;;;;;;;;;;6312793;22;20025;-86
2022/10/22 14:32:39;;;;;;;23.38;13.50;;;;;;;;;;6312806;22;20009;-86
2022/10/22 14:35:05;;;;;;;19.58;10.50;;;;;;;;;;6312423;22;20002;-86
2022/10/22 14:37:31;;;;;;;21.90;10.20;;;;;;;;;;6312381;22;20017;-87
2022/10/22 14:40:07;;;;;;;14.55;9.50;;;;;;;;;;6312670;22;20056;-92
2022/10/22 14:42:39;;;;;;;15.48;9.02;;;;;;;;;;6312890;22;20493;-89
2022/10/22 14:45:05;;;;;;;18.98;9.40;;;;;;;;;;6312761;22;20002;-88
2022/10/22 14:47:32;;;;;;;15.65;9.68;;;;;;;;;;6312998;22;20003;-89
2022/10/22 14:49:58;;;;;;;17.40;11.35;;;;;;;;;;6313099;22;19998;-88
2022/10/22 14:52:24;;;;;;;17.77;10.77;;;;;;;;;;6313240;22;20014;-86